createdAt,value
2017-11-26T00:00:26.666Z,13.10
2017-11-26T00:02:54.092Z,13.83
2017-11-26T00:05:21.537Z,14.77
2017-11-26T00:07:48.976Z,13.00
2017-11-26T00:10:17.178Z,13.07
2017-11-26T00:12:44.637Z,14.18
2017-11-26T00:15:12.092Z,11.95
2017-11-26T00:17:39.549Z,12.48
2017-11-26T00:20:06.989Z,12.45
2017-11-26T00:22:35.184Z,12.50
2017-11-26T00:25:02.704Z,13.75
2017-11-26T00:27:30.967Z,14.57
2017-11-26T00:29:58.410Z,14.50
2017-11-26T00:32:25.863Z,14.48
2017-11-26T00:34:53.343Z,16.62
2017-11-26T00:37:20.783Z,16.00
2017-11-26T00:39:48.239Z,15.43
2017-11-26T00:42:15.927Z,16.42
2017-11-26T00:44:44.196Z,17.02
2017-11-26T00:47:11.741Z,15.52
2017-11-26T00:49:39.195Z,16.15
2017-11-26T00:52:06.654Z,18.02
2017-11-26T00:54:34.212Z,16.90
2017-11-26T00:57:01.671Z,18.60
2017-11-26T00:59:29.127Z,17.23
2017-11-26T01:01:56.684Z,18.77
2017-11-26T01:04:24.144Z,18.50
2017-11-26T01:06:51.586Z,18.30
2017-11-26T01:09:19.007Z,19.10
2017-11-26T01:11:46.505Z,18.45
2017-11-26T01:14:13.947Z,20.23
2017-11-26T01:16:41.385Z,18.58
2017-11-26T01:19:08.820Z,18.58
2017-11-26T01:21:36.344Z,17.80
2017-11-26T01:24:03.802Z,18.60
2017-11-26T01:26:31.343Z,20.58
2017-11-26T01:28:58.798Z,20.23
2017-11-26T01:31:26.242Z,20.10
2017-11-26T01:33:53.680Z,20.65
2017-11-26T01:36:21.155Z,19.10
2017-11-26T01:38:48.601Z,21.20
2017-11-26T01:41:16.044Z,22.42
2017-11-26T01:43:43.487Z,21.60
2017-11-26T01:46:10.937Z,22.85
2017-11-26T01:48:38.407Z,22.08
2017-11-26T01:51:05.839Z,21.15
2017-11-26T01:53:34.044Z,20.25
2017-11-26T01:56:01.492Z,23.25
2017-11-26T01:58:28.948Z,22.80
2017-11-26T02:00:56.390Z,22.92
2017-11-26T02:03:24.625Z,24.10
2017-11-26T02:05:52.067Z,24.08
2017-11-26T02:08:19.508Z,22.92
2017-11-26T02:10:46.985Z,23.02
2017-11-26T02:13:14.421Z,24.25
2017-11-26T02:15:41.899Z,26.10
2017-11-26T02:18:09.335Z,25.33
2017-11-26T02:20:36.815Z,22.70
2017-11-26T02:23:04.259Z,24.02
2017-11-26T02:25:31.712Z,23.40
2017-11-26T02:27:59.196Z,24.60
2017-11-26T02:30:26.727Z,24.92
2017-11-26T02:33:06.109Z,22.83
2017-11-26T02:38:42.843Z,21.25
2017-11-26T02:41:10.288Z,24.95
2017-11-26T02:43:37.757Z,24.75
2017-11-26T02:46:05.246Z,24.80
2017-11-26T02:48:32.686Z,22.45
2017-11-26T02:51:00.254Z,22.00
2017-11-26T02:53:27.756Z,21.53
2017-11-26T02:55:55.957Z,20.93
2017-11-26T02:58:23.436Z,21.48
2017-11-26T03:00:50.991Z,20.98
2017-11-26T03:03:18.469Z,20.60
2017-11-26T03:05:45.912Z,22.20
2017-11-26T03:08:13.352Z,20.17
2017-11-26T03:10:40.844Z,21.70
2017-11-26T03:13:08.297Z,21.07
2017-11-26T03:15:35.768Z,22.55
2017-11-26T03:18:03.224Z,22.90
2017-11-26T03:20:30.666Z,22.60
2017-11-26T03:22:58.100Z,23.98
2017-11-26T03:25:25.553Z,23.05
2017-11-26T03:27:53.052Z,24.55
2017-11-26T03:30:20.476Z,22.60
2017-11-26T03:32:47.928Z,23.80
2017-11-26T03:35:15.392Z,24.33
2017-11-26T03:37:42.837Z,21.55
2017-11-26T03:40:10.305Z,20.85
2017-11-26T03:42:37.753Z,20.60
2017-11-26T03:45:05.211Z,20.83
2017-11-26T03:47:32.684Z,21.58
2017-11-26T03:50:00.136Z,19.40
2017-11-26T03:52:27.602Z,21.00
2017-11-26T03:54:55.041Z,20.00
2017-11-26T03:57:22.509Z,19.90
2017-11-26T03:59:49.953Z,20.37
2017-11-26T04:02:17.396Z,18.58
2017-11-26T04:04:44.837Z,19.58
2017-11-26T04:07:13.865Z,19.45
2017-11-26T04:09:41.305Z,20.08
2017-11-26T04:12:08.779Z,19.83
2017-11-26T04:14:36.237Z,19.55
2017-11-26T04:17:03.676Z,19.92
2017-11-26T04:19:31.113Z,20.45
2017-11-26T04:21:58.556Z,19.83
2017-11-26T04:24:26.026Z,20.80
2017-11-26T04:26:53.505Z,19.62
2017-11-26T04:29:20.943Z,20.20
2017-11-26T04:34:23.153Z,20.65
2017-11-26T04:36:50.712Z,19.70
2017-11-26T04:39:19.112Z,20.92
2017-11-26T04:41:46.563Z,20.25
2017-11-26T04:44:14.006Z,20.27
2017-11-26T04:46:41.559Z,20.27
2017-11-26T04:49:09.107Z,19.48
2017-11-26T04:51:36.546Z,18.30
2017-11-26T04:54:03.972Z,17.20
2017-11-26T04:56:31.414Z,20.70
2017-11-26T04:58:58.903Z,19.73
2017-11-26T05:01:26.392Z,19.17
2017-11-26T05:03:53.970Z,19.70
2017-11-26T05:06:21.435Z,19.37
2017-11-26T05:08:49.069Z,19.12
2017-11-26T05:11:16.496Z,21.42
2017-11-26T05:13:43.945Z,20.17
2017-11-26T05:16:11.541Z,19.52
2017-11-26T05:18:38.976Z,19.27
2017-11-26T05:21:06.411Z,19.33
2017-11-26T05:23:33.876Z,18.40
2017-11-26T05:26:01.300Z,17.60
2017-11-26T05:28:28.869Z,19.08
2017-11-26T05:30:56.288Z,16.27
2017-11-26T05:33:23.836Z,17.77
2017-11-26T05:35:51.291Z,17.65
2017-11-26T05:38:18.732Z,16.80
2017-11-26T05:40:46.321Z,17.55
2017-11-26T05:43:13.751Z,17.15
2017-11-26T05:45:41.191Z,17.60
2017-11-26T05:48:08.640Z,19.65
2017-11-26T05:50:36.077Z,18.77
2017-11-26T05:53:04.318Z,18.92
2017-11-26T05:55:31.773Z,18.75
2017-11-26T05:57:59.237Z,18.48
2017-11-26T06:00:26.676Z,18.85
2017-11-26T06:02:54.144Z,17.87
2017-11-26T06:05:21.584Z,18.83
2017-11-26T06:07:49.031Z,18.92
2017-11-26T06:10:16.488Z,18.02
2017-11-26T06:12:43.943Z,17.23
2017-11-26T06:15:11.396Z,17.85
2017-11-26T06:17:38.856Z,18.17
2017-11-26T06:20:06.316Z,18.33
2017-11-26T06:22:33.778Z,17.35
2017-11-26T06:25:01.222Z,16.98
2017-11-26T06:27:28.652Z,16.58
2017-11-26T06:29:56.915Z,17.83
2017-11-26T06:32:24.410Z,16.73
2017-11-26T06:34:51.844Z,17.77
2017-11-26T06:37:19.280Z,17.98
2017-11-26T06:39:46.723Z,17.52
2017-11-26T06:42:14.173Z,16.40
2017-11-26T06:44:41.632Z,17.42
2017-11-26T06:47:09.163Z,18.83
2017-11-26T06:49:36.618Z,17.50
2017-11-26T06:52:04.035Z,19.27
2017-11-26T06:54:31.476Z,19.20
2017-11-26T06:56:59.716Z,19.98
2017-11-26T06:59:27.178Z,19.67
2017-11-26T07:01:54.668Z,20.20
2017-11-26T07:04:22.113Z,21.92
2017-11-26T07:06:49.539Z,22.40
2017-11-26T07:09:17.017Z,23.35
2017-11-26T07:11:44.556Z,22.40
2017-11-26T07:14:11.999Z,23.48
2017-11-26T07:16:39.452Z,23.25
2017-11-26T07:19:06.884Z,22.90
2017-11-26T07:21:34.329Z,24.73
2017-11-26T07:24:02.563Z,25.80
2017-11-26T07:26:30.027Z,25.62
2017-11-26T07:28:57.481Z,25.83
2017-11-26T07:31:24.930Z,27.15
2017-11-26T07:33:52.396Z,27.20
2017-11-26T07:36:19.852Z,29.27
2017-11-26T07:38:48.788Z,28.02
2017-11-26T07:41:16.228Z,27.27
2017-11-26T07:43:44.424Z,28.48
2017-11-26T07:46:11.933Z,30.00
2017-11-26T07:48:39.372Z,29.08
2017-11-26T07:51:06.841Z,29.55
2017-11-26T07:53:34.278Z,28.02
2017-11-26T07:56:01.736Z,28.12
2017-11-26T07:58:29.226Z,28.77
2017-11-26T08:00:56.759Z,29.98
2017-11-26T08:03:24.211Z,28.48
2017-11-26T08:05:51.795Z,29.40
2017-11-26T08:08:19.332Z,29.55
2017-11-26T08:10:46.775Z,29.83
2017-11-26T08:13:14.243Z,29.60
2017-11-26T08:15:41.775Z,30.42
2017-11-26T08:18:09.258Z,29.40
2017-11-26T08:20:36.711Z,28.45
2017-11-26T08:23:04.160Z,29.33
2017-11-26T08:25:31.671Z,30.05
2017-11-26T08:27:59.140Z,29.52
2017-11-26T08:30:26.674Z,29.00
2017-11-26T08:32:54.141Z,29.48
2017-11-26T08:35:21.624Z,28.98
2017-11-26T08:37:49.080Z,29.33
2017-11-26T08:40:16.528Z,28.35
2017-11-26T08:42:43.980Z,27.58
2017-11-26T08:45:11.420Z,26.70
2017-11-26T08:47:38.916Z,28.62
2017-11-26T08:50:06.378Z,27.00
2017-11-26T08:52:33.820Z,27.73
2017-11-26T08:55:01.364Z,26.75
2017-11-26T08:57:28.806Z,25.23
2017-11-26T08:59:56.224Z,25.75
2017-11-26T09:02:24.443Z,26.07
2017-11-26T09:04:51.875Z,26.92
2017-11-26T09:10:19.282Z,25.90
2017-11-26T09:12:46.710Z,26.00
2017-11-26T09:15:14.145Z,25.63
2017-11-26T09:17:42.367Z,25.27
2017-11-26T09:20:09.804Z,25.60
2017-11-26T09:22:37.260Z,25.62
2017-11-26T09:25:04.674Z,24.58
2017-11-26T09:27:32.123Z,24.63
2017-11-26T09:29:59.571Z,25.33
2017-11-26T09:32:27.028Z,25.42
2017-11-26T09:34:54.576Z,25.15
2017-11-26T09:37:22.028Z,24.20
2017-11-26T09:39:49.466Z,24.60
2017-11-26T09:42:16.958Z,24.40
2017-11-26T09:44:44.410Z,26.85
2017-11-26T09:47:11.958Z,25.93
2017-11-26T09:49:39.379Z,25.93
2017-11-26T09:52:06.851Z,24.47
2017-11-26T09:54:34.280Z,24.08
2017-11-26T09:57:01.791Z,22.13
2017-11-26T09:59:29.272Z,22.58
2017-11-26T10:01:56.790Z,23.92
2017-11-26T10:04:24.243Z,23.83
2017-11-26T10:06:51.808Z,23.70
2017-11-26T10:09:19.241Z,23.70
2017-11-26T10:11:46.670Z,23.23
2017-11-26T10:14:14.115Z,23.20
2017-11-26T10:16:42.326Z,23.25
2017-11-26T10:19:09.918Z,23.50
2017-11-26T10:21:37.371Z,22.60
2017-11-26T10:24:04.818Z,21.37
2017-11-26T10:26:32.304Z,22.60
2017-11-26T10:28:59.828Z,21.77
2017-11-26T10:31:27.305Z,22.05
2017-11-26T10:33:55.531Z,19.73
2017-11-26T10:36:22.972Z,19.75
2017-11-26T10:38:51.195Z,20.83
2017-11-26T10:41:18.636Z,19.62
2017-11-26T10:43:46.105Z,19.90
2017-11-26T10:46:13.543Z,19.42
2017-11-26T10:48:40.982Z,19.40
2017-11-26T10:51:08.423Z,19.60
2017-11-26T10:53:35.897Z,18.43
2017-11-26T10:56:03.421Z,17.98
2017-11-26T10:58:31.637Z,19.23
2017-11-26T11:00:59.079Z,17.75
2017-11-26T11:03:27.400Z,18.08
2017-11-26T11:05:55.009Z,18.73
2017-11-26T11:08:23.203Z,19.08
2017-11-26T11:10:50.687Z,18.70
2017-11-26T11:13:18.143Z,18.13
2017-11-26T11:15:45.688Z,17.52
2017-11-26T11:18:13.118Z,17.08
2017-11-26T11:20:40.620Z,16.70
2017-11-26T11:23:08.044Z,18.90
2017-11-26T11:25:35.492Z,17.23
2017-11-26T11:28:02.943Z,18.92
2017-11-26T11:30:30.448Z,17.92
2017-11-26T11:32:57.995Z,17.62
2017-11-26T11:35:25.453Z,16.80
2017-11-26T11:37:52.913Z,17.77
2017-11-26T11:40:20.373Z,16.02
2017-11-26T11:42:47.808Z,16.52
2017-11-26T11:45:15.269Z,16.17
2017-11-26T11:47:42.756Z,16.55
2017-11-26T11:50:10.195Z,16.27
2017-11-26T11:52:37.628Z,16.37
2017-11-26T11:55:05.080Z,15.70
2017-11-26T11:57:33.276Z,17.00
2017-11-26T12:00:00.752Z,16.95
2017-11-26T12:02:28.199Z,15.65
2017-11-26T12:04:55.635Z,16.20
2017-11-26T12:07:23.127Z,15.65
2017-11-26T12:09:50.577Z,15.05
2017-11-26T12:12:18.055Z,14.80
2017-11-26T12:14:45.487Z,14.60
2017-11-26T12:17:12.949Z,14.80
2017-11-26T12:19:40.432Z,14.02
2017-11-26T12:22:07.867Z,13.98
2017-11-26T12:24:35.308Z,14.93
2017-11-26T12:27:02.755Z,13.53
2017-11-26T12:29:30.235Z,13.13
2017-11-26T12:31:57.681Z,12.70
2017-11-26T12:34:25.118Z,12.52
2017-11-26T12:36:52.562Z,13.30
2017-11-26T12:39:19.984Z,14.40
2017-11-26T12:41:47.426Z,13.90
2017-11-26T12:44:14.877Z,14.48
2017-11-26T12:46:42.363Z,14.73
2017-11-26T12:49:10.554Z,13.43
2017-11-26T12:51:37.991Z,13.27
2017-11-26T12:54:06.867Z,13.77
2017-11-26T12:56:34.314Z,14.50
2017-11-26T12:59:01.767Z,14.20
2017-11-26T13:01:29.210Z,13.20
2017-11-26T13:03:56.672Z,13.20
2017-11-26T13:06:24.124Z,13.00
2017-11-26T13:08:51.573Z,12.40
2017-11-26T13:11:19.006Z,12.35
2017-11-26T13:13:46.529Z,12.10
2017-11-26T13:16:13.967Z,12.20
2017-11-26T13:18:41.434Z,11.10
2017-11-26T13:21:08.867Z,10.05
2017-11-26T13:23:36.423Z,9.23
2017-11-26T13:26:03.853Z,9.60
2017-11-26T13:28:31.292Z,8.55
2017-11-26T13:30:59.485Z,8.50
2017-11-26T13:33:26.925Z,7.50
2017-11-26T13:35:55.147Z,8.10
2017-11-26T13:38:22.600Z,7.15
2017-11-26T13:40:50.797Z,6.50
2017-11-26T13:43:18.288Z,5.72
2017-11-26T13:45:45.740Z,5.97
2017-11-26T13:48:13.181Z,4.97
2017-11-26T13:50:40.673Z,4.50
2017-11-26T13:53:08.092Z,4.80
2017-11-26T13:55:35.523Z,4.30
2017-11-26T13:58:03.743Z,4.93
2017-11-26T14:00:31.203Z,5.00
2017-11-26T14:02:59.422Z,3.80
2017-11-26T14:05:26.945Z,5.20
2017-11-26T14:07:54.400Z,4.20
2017-11-26T14:10:21.853Z,5.95
2017-11-26T14:12:49.307Z,4.75
2017-11-26T14:15:16.871Z,5.70
2017-11-26T14:17:44.325Z,4.85
2017-11-26T14:20:11.765Z,5.95
2017-11-26T14:22:39.210Z,5.15
2017-11-26T14:25:06.701Z,4.47
2017-11-26T14:27:34.156Z,5.95
2017-11-26T14:30:01.597Z,4.55
2017-11-26T14:32:29.058Z,6.00
2017-11-26T14:34:56.496Z,5.68
2017-11-26T14:37:23.932Z,5.70
2017-11-26T14:39:51.368Z,4.87
2017-11-26T14:42:19.620Z,5.90
2017-11-26T14:44:47.065Z,5.68
2017-11-26T14:47:14.523Z,3.78
2017-11-26T14:49:41.976Z,7.28
2017-11-26T14:52:09.427Z,5.53
2017-11-26T14:54:36.868Z,7.07
2017-11-26T14:57:04.314Z,6.12
2017-11-26T14:59:31.775Z,6.30
2017-11-26T15:01:59.352Z,5.90
2017-11-26T15:04:26.802Z,4.75
2017-11-26T15:06:54.281Z,4.18
2017-11-26T15:09:21.717Z,5.78
2017-11-26T15:11:49.279Z,6.20
2017-11-26T15:14:16.705Z,6.47
2017-11-26T15:16:44.141Z,6.70
2017-11-26T15:19:11.576Z,6.80
2017-11-26T15:21:39.019Z,6.72
2017-11-26T15:24:06.470Z,4.22
2017-11-26T15:26:33.927Z,9.33
2017-11-26T15:29:01.366Z,7.10
2017-11-26T15:31:28.779Z,5.32
2017-11-26T15:33:56.212Z,3.08
2017-11-26T15:36:23.652Z,3.80
2017-11-26T15:38:51.075Z,5.60
2017-11-26T15:41:18.539Z,4.97
2017-11-26T15:43:45.994Z,6.15
2017-11-26T15:46:14.192Z,6.15
2017-11-26T15:48:41.621Z,5.93
2017-11-26T15:51:09.849Z,6.43
2017-11-26T15:53:37.429Z,5.72
2017-11-26T15:56:04.865Z,6.15
2017-11-26T15:58:32.308Z,5.50
2017-11-26T16:00:59.802Z,5.80
2017-11-26T16:03:28.056Z,3.62
2017-11-26T16:05:55.516Z,6.85
2017-11-26T16:08:22.951Z,4.85
2017-11-26T16:10:50.392Z,5.93
2017-11-26T16:13:17.814Z,3.47
2017-11-26T16:15:46.033Z,4.68
2017-11-26T16:18:13.520Z,3.73
2017-11-26T16:20:40.952Z,4.47
2017-11-26T16:23:08.375Z,4.15
2017-11-26T16:25:35.812Z,5.30
2017-11-26T16:28:03.244Z,5.32
2017-11-26T16:30:30.687Z,4.10
2017-11-26T16:32:58.130Z,4.10
2017-11-26T16:35:25.704Z,3.90
2017-11-26T16:37:53.148Z,3.95
2017-11-26T16:40:20.582Z,6.30
2017-11-26T16:42:48.022Z,4.90
2017-11-26T16:45:15.452Z,4.97
2017-11-26T16:47:43.707Z,6.73
2017-11-26T16:50:11.160Z,4.62
2017-11-26T16:52:38.615Z,4.82
2017-11-26T16:55:06.048Z,4.82
2017-11-26T16:57:33.541Z,5.05
2017-11-26T17:00:01.004Z,4.95
2017-11-26T17:02:28.561Z,4.93
2017-11-26T17:04:55.997Z,3.92
2017-11-26T17:07:23.435Z,5.37
2017-11-26T17:09:50.855Z,3.62
2017-11-26T17:12:19.092Z,5.00
2017-11-26T17:14:46.507Z,4.18
2017-11-26T17:17:13.949Z,6.32
2017-11-26T17:19:42.136Z,5.70
2017-11-26T17:22:09.588Z,4.33
2017-11-26T17:24:37.012Z,6.40
2017-11-26T17:27:04.541Z,5.95
2017-11-26T17:29:32.012Z,6.45
2017-11-26T17:31:59.423Z,8.50
2017-11-26T17:34:26.908Z,4.70
2017-11-26T17:36:54.332Z,8.57
2017-11-26T17:39:21.788Z,4.78
2017-11-26T17:41:49.256Z,5.87
2017-11-26T17:44:16.687Z,4.20
2017-11-26T17:46:44.116Z,5.25
2017-11-26T17:49:12.321Z,3.90
2017-11-26T17:51:39.751Z,4.80
2017-11-26T17:54:07.203Z,4.37
2017-11-26T17:56:34.623Z,3.80
2017-11-26T17:59:02.071Z,7.03
2017-11-26T18:01:29.548Z,5.43
2017-11-26T18:03:57.007Z,6.37
2017-11-26T18:06:24.446Z,6.00
2017-11-26T18:08:51.872Z,4.60
2017-11-26T18:11:19.304Z,3.10
2017-11-26T18:13:47.505Z,6.87
2017-11-26T18:16:14.945Z,4.75
2017-11-26T18:18:43.371Z,4.57
2017-11-26T18:21:10.799Z,6.60
2017-11-26T18:23:38.233Z,4.90
2017-11-26T18:26:06.552Z,5.17
2017-11-26T18:28:33.992Z,4.12
2017-11-26T18:31:01.424Z,4.47
2017-11-26T18:33:29.673Z,3.67
2017-11-26T18:35:57.116Z,4.87
2017-11-26T18:38:24.554Z,4.90
2017-11-26T18:40:52.016Z,6.23
2017-11-26T18:43:19.463Z,4.78
2017-11-26T18:45:46.900Z,5.72
2017-11-26T18:48:14.324Z,7.18
2017-11-26T18:50:42.547Z,5.07
2017-11-26T18:53:10.124Z,6.32
2017-11-26T18:55:37.584Z,5.82
2017-11-26T18:58:05.012Z,5.37
2017-11-26T19:00:32.448Z,6.43
2017-11-26T19:02:59.943Z,6.65
2017-11-26T19:05:27.392Z,5.47
2017-11-26T19:07:54.847Z,6.47
2017-11-26T19:10:22.308Z,4.97
2017-11-26T19:12:49.768Z,5.50
2017-11-26T19:15:17.228Z,5.07
2017-11-26T19:17:44.680Z,5.72
2017-11-26T19:20:12.140Z,6.07
2017-11-26T19:22:39.595Z,3.87
2017-11-26T19:25:07.438Z,4.85
2017-11-26T19:27:34.839Z,5.50
2017-11-26T19:30:02.377Z,7.45
2017-11-26T19:32:29.845Z,5.15
2017-11-26T19:34:57.280Z,8.85
2017-11-26T19:37:24.747Z,4.97
2017-11-26T19:39:52.196Z,5.45
2017-11-26T19:42:19.633Z,5.67
2017-11-26T19:44:47.207Z,4.53
2017-11-26T19:47:14.801Z,4.30
2017-11-26T19:49:42.223Z,7.50
2017-11-26T19:52:09.656Z,5.60
2017-11-26T19:54:37.082Z,4.65
2017-11-26T19:57:04.520Z,7.12
2017-11-26T19:59:31.964Z,6.37
2017-11-26T20:01:59.400Z,10.35
2017-11-26T20:04:26.837Z,7.55
2017-11-26T20:06:54.274Z,6.62
2017-11-26T20:09:21.707Z,6.45
2017-11-26T20:11:49.247Z,7.03
2017-11-26T20:14:16.692Z,5.30
2017-11-26T20:16:44.147Z,7.55
2017-11-26T20:19:11.572Z,6.37
2017-11-26T20:21:39.044Z,6.03
2017-11-26T20:24:06.463Z,6.60
2017-11-26T20:26:33.899Z,3.95
2017-11-26T20:29:01.332Z,7.18
2017-11-26T20:31:28.752Z,5.40
2017-11-26T20:33:56.250Z,5.62
2017-11-26T20:36:23.701Z,5.62
2017-11-26T20:38:51.164Z,7.60
2017-11-26T20:41:18.637Z,6.35
2017-11-26T20:43:46.080Z,4.10
2017-11-26T20:46:13.552Z,6.87
2017-11-26T20:48:41.112Z,5.93
2017-11-26T20:51:08.553Z,5.80
2017-11-26T20:53:36.019Z,6.25
2017-11-26T20:56:03.458Z,5.10
2017-11-26T20:58:30.880Z,4.00
2017-11-26T21:00:58.313Z,7.40
2017-11-26T21:03:26.562Z,5.10
2017-11-26T21:05:54.010Z,5.80
2017-11-26T21:08:21.577Z,4.62
2017-11-26T21:10:49.012Z,5.55
2017-11-26T21:13:16.440Z,6.35
2017-11-26T21:15:43.939Z,4.20
2017-11-26T21:18:11.388Z,5.43
2017-11-26T21:20:38.816Z,6.82
2017-11-26T21:23:06.263Z,6.15
2017-11-26T21:25:33.688Z,3.15
2017-11-26T21:28:01.211Z,4.87
2017-11-26T21:30:28.641Z,5.05
2017-11-26T21:32:56.078Z,5.40
2017-11-26T21:35:24.302Z,6.60
2017-11-26T21:37:51.730Z,5.03
2017-11-26T21:40:19.155Z,5.55
2017-11-26T21:42:47.392Z,4.68
2017-11-26T21:45:14.823Z,5.70
2017-11-26T21:47:42.304Z,6.18
2017-11-26T21:50:09.733Z,4.00
2017-11-26T21:52:37.177Z,4.85
2017-11-26T21:55:04.614Z,6.73
2017-11-26T21:57:32.832Z,7.47
2017-11-26T22:00:00.389Z,4.75
2017-11-26T22:02:27.823Z,6.55
2017-11-26T22:04:55.250Z,7.07
2017-11-26T22:07:23.451Z,7.35
2017-11-26T22:09:50.943Z,7.12
2017-11-26T22:12:18.391Z,8.52
2017-11-26T22:14:45.856Z,5.87
2017-11-26T22:17:13.287Z,5.97
2017-11-26T22:19:40.772Z,5.18
2017-11-26T22:22:08.220Z,7.82
2017-11-26T22:24:35.890Z,5.47
2017-11-26T22:27:03.317Z,8.50
2017-11-26T22:29:30.754Z,6.35
2017-11-26T22:31:58.359Z,6.55
2017-11-26T22:34:25.922Z,4.60
2017-11-26T22:36:53.357Z,8.02
2017-11-26T22:39:20.817Z,5.97
2017-11-26T22:41:48.248Z,9.30
2017-11-26T22:44:15.730Z,4.60
2017-11-26T22:46:43.156Z,6.18
2017-11-26T22:49:10.590Z,7.10
2017-11-26T22:51:39.767Z,6.93
2017-11-26T22:54:07.509Z,5.47
2017-11-26T22:56:34.980Z,4.55
2017-11-26T22:59:02.423Z,7.75
2017-11-26T23:01:29.879Z,5.97
2017-11-26T23:03:57.340Z,5.60
2017-11-26T23:06:24.780Z,5.12
2017-11-26T23:08:52.235Z,5.93
2017-11-26T23:11:19.684Z,7.47
2017-11-26T23:13:47.130Z,5.63
2017-11-26T23:16:14.556Z,4.60
2017-11-26T23:18:42.744Z,5.78
2017-11-26T23:21:10.952Z,7.22
2017-11-26T23:23:38.508Z,8.88
2017-11-26T23:26:05.956Z,7.80
2017-11-26T23:28:33.447Z,8.57
2017-11-26T23:31:00.883Z,6.57
2017-11-26T23:33:28.439Z,7.10
2017-11-26T23:35:55.919Z,6.50
2017-11-26T23:38:23.461Z,4.80
2017-11-26T23:40:50.910Z,7.82
2017-11-26T23:43:18.368Z,7.55
2017-11-26T23:45:45.848Z,6.45
2017-11-26T23:48:13.387Z,10.07
2017-11-26T23:50:40.812Z,9.35
2017-11-26T23:53:08.246Z,8.02
2017-11-26T23:55:36.467Z,5.80
2017-11-26T23:58:03.879Z,6.65
